AirNav   Air Wisconsin Up To $57,000 Bonus
 
 1195 users online  

FL70 WFLA-TV 8 Heliport
Tampa, Florida, USA

GOING TO TAMPA?


FAA INFORMATION EFFECTIVE 07 NOVEMBER 2019

Location

FAA Identifier: FL70
Lat/Long: 27-56-38.0000N 082-27-42.0000W
27-56.633333N 082-27.700000W
27.9438889,-82.4616667
(estimated)
Elevation: 60 ft. / 18 m (estimated)
Variation: 04W (2000)
Time zone: UTC -5 (UTC -4 during Daylight Saving Time)
Zip code: 33606

Heliport Operations

Heliport use: Private use. Permission required prior to landing
Activation date: 02/2001
Control tower: no
ARTCC: MIAMI CENTER
FSS: SAINT PETERSBURG FLIGHT SERVICE STATION
Attendance: UNATNDD
Wind indicator: yes
Segmented circle: no

Heliport Communications

WX AWOS-3 at TPF (1.8 nm S): 118.925 (813-251-6824)
WX ASOS at TPA (4 nm NW): PHONE 813-873-7228
WX AWOS-3 at VDF (7 nm NE): 121.125 (813-630-0924)
WX ASOS at PIE (12 nm W): PHONE 727-531-3456
WX ASOS at SPG (14 nm SW): 118.875 (727-821-4334)
WX AWOS-3P at CLW (16 nm W): 119.225 (727-449-2184)
WX AWOS-3 at PCM (16 nm E): 120.025 (813-764-8259)

Nearby radio navigation aids

VOR radial/distance  VOR name  Freq  Var
PIEr085/12.0ST PETERSBURG VORTAC116.4005W
LALr263/23.9LAKELAND VORTAC116.0001E
SRQr015/32.7SARASOTA VOR/DME117.0005W

 
NDB name  Hdg/Dist  Freq  Var  ID
COSME163/9.136805WTP - .--.
CAPOK109/13.236005WPI .--. ..

Heliport Services

Runway Information

Helipad H1

Dimensions: 36 x 36 ft. / 11 x 11 m
Surface: concrete
Traffic pattern: leftleft

Heliport Ownership and Management from official FAA records

Ownership: Privately-owned
Owner: TAMPA TELEVISION, INC
200 S PARKER ST
TAMPA, FL 33606
Phone (813) 228-8888
Manager: JIM BROWN
WFLA-TV 8, P.O. BOX 1410
TAMPA, FL 33602
Phone (813) 225-2709

Additional Remarks

FOR CD CTC TAMPA APCH AT 813-878-2528

Instrument Procedures

There are no published instrument procedures at FL70.

Some nearby airports with instrument procedures:

KTPF - Peter O Knight Airport (2 nm S)
KTPA - Tampa International Airport (4 nm NW)
KMCF - MacDill Air Force Base (6 nm SW)
KVDF - Tampa Executive Airport (7 nm NE)
KPIE - St Pete-Clearwater International Airport (12 nm W)
KSPG - Albert Whitted Airport (14 nm SW)
KCLW - Clearwater Air Park (16 nm W)
KPCM - Plant City Airport (16 nm E)
 
Loc | Ops | Rwys | IFR | FBO | Links
Com | Nav | Svcs | Stats | Notes


 
Area around FL70 (WFLA-TV 8 Heliport)
 
Road maps at: MapQuest Bing Google
 
Aerial photo
No photo
 
Sectional chart

 
Airport distance calculator
Flying to WFLA-TV 8 Heliport? Find the distance to fly.

From to FL70

Sunrise and sunset
Times for 15-Nov-2019
 Local
(UTC-5)
 Zulu
(UTC)
Morning civil twilight06:2811:28
Sunrise06:5211:52
Sunset17:3722:37
Evening civil twilight18:0123:01

Current date and time
Zulu (UTC)  15-Nov-2019 21:44:43
Local (UTC-5)  15-Nov-2019 16:44:43
 
METAR
KTPF 
2nm S 
152135Z AUTO 34006KT 5SM HZ OVC009 A2994 RMK AO2
KTPA 
4nm W 
152118Z 32011G17KT 10SM -DZ OVC010 18/17 A2994 RMK AO2 DZB18 CIG 010V012 P0000 T01830167
KMCF 
6nm SW 
152117Z AUTO 35010G15KT 10SM OVC008 19/17 A2993 RMK AO2 DZB00E17 SLP138 FZRANO $
KVDF 
7nm NE 
152135Z AUTO 33006KT 4SM BR OVC007 17/17 A2994 RMK AO2
KPIE 
12nm W 
152053Z 32011KT 9SM OVC009 19/17 A2994 RMK AO2 SLP137 60000 T01940167 55005
KSPG 
14nm SW 
152053Z 33007KT 10SM OVC012 20/17 A2991 RMK AO2 SLP129 T02000172 55006
KCLW 
16nm W 
152135Z AUTO 34010G16KT 10SM OVC007 17/16 A2993 RMK AO2
KPCM 
16nm E 
152135Z AUTO 32007KT 10SM OVC006 18/17 A2995 RMK AO2
TAF
KTPA 
4nm W 
151740Z 1518/1624 32007KT P6SM VCSH BKN015 OVC100 FM160200 32009KT P6SM VCSH SCT015 OVC025 FM160600 32011KT P6SM VCSH SCT010 BKN020 FM161400 34012G18KT P6SM BKN025 FM161800 34013G20KT P6SM SCT030
KMCF 
6nm SW 
151700Z 1517/1623 33009KT 9999 OVC010 QNH2995INS BECMG 1519/1520 31012G18KT 9999 OVC010 QNH2991INS BECMG 1600/1601 30012KT 9999 SCT010 BKN030 QNH2987INS BECMG 1611/1612 33012G18KT 9999 BKN010 BKN030 QNH2993INS BECMG 1622/1623 33020G25KT 9999 OVC050 510033 QNH2996INS TX23/1519Z TN15/1623Z
KPIE 
12nm W 
151740Z 1518/1618 31010KT P6SM VCSH SCT009 OVC015 FM160200 32010KT P6SM VCSH SCT015 OVC025 FM160600 33012G20KT P6SM VCSH SCT010 BKN020 FM161400 34014G22KT P6SM OVC025
NOTAMs
Click for the latest NOTAMs
NOTAMs are issued by the DoD/FAA and will open in a separate window not controlled by AirNav.

 

 
 

Would you like to see your business listed on this page?

 If your business provides an interesting product or service to pilots, flight crews, aircraft, or users of the WFLA-TV 8 Heliport, you should consider listing it here.  To start the listing process, click on the button below
 
Add a business
 

Other Pages about WFLA-TV 8 Heliport

Update a link
 
Copyright © AirNav, LLC. All rights reserved. Privacy Policy  Contact